createdAt,value
2019-02-25T00:01:32.694Z,100115.77
2019-02-25T00:04:22.321Z,100117.48
2019-02-25T00:06:52.602Z,100109.67
2019-02-25T00:09:41.910Z,100107.95
2019-02-25T00:12:12.514Z,100103.67
2019-02-25T00:14:42.718Z,100098.47
2019-02-25T00:17:32.400Z,99893.27
2019-02-25T00:20:02.593Z,100093.74
2019-02-25T00:22:32.895Z,100101.44
2019-02-25T00:25:03.558Z,100091.14
2019-02-25T00:27:52.900Z,100089.45
2019-02-25T00:30:43.965Z,100086.39
2019-02-25T00:33:14.501Z,100087.58
2019-02-25T00:36:04.051Z,100088.84
2019-02-25T00:38:35.154Z,100083.25
2019-02-25T00:41:29.844Z,100078.98
2019-02-25T00:44:19.625Z,100080.67
2019-02-25T00:47:09.356Z,100078.47
2019-02-25T00:49:59.605Z,100086.20
2019-02-25T00:52:49.913Z,100082.26
2019-02-25T00:55:39.609Z,100091.77
2019-02-25T00:58:31.915Z,100087.87
2019-02-25T01:01:21.459Z,100087.44
2019-02-25T01:04:10.877Z,99926.11
2019-02-25T01:07:00.582Z,100082.26
2019-02-25T01:09:51.762Z,100077.50
2019-02-25T01:13:01.812Z,100072.34
2019-02-25T01:15:32.252Z,100068.50
2019-02-25T01:18:02.749Z,100070.56
2019-02-25T01:20:33.871Z,100071.85
2019-02-25T01:23:23.539Z,100071.41
2019-02-25T01:26:13.506Z,100070.52
2019-02-25T01:29:03.330Z,100064.09
2019-02-25T01:31:52.840Z,100058.45
2019-02-25T01:34:23.446Z,100066.09
2019-02-25T01:37:12.865Z,100060.55
2019-02-25T01:39:54.694Z,100054.93
2019-02-25T01:42:25.288Z,100060.10
2019-02-25T01:45:15.012Z,100066.10
2019-02-25T01:47:45.972Z,100074.72
2019-02-25T01:50:35.283Z,100067.80
2019-02-25T01:53:45.718Z,100063.55
2019-02-25T01:56:27.651Z,100055.38
2019-02-25T01:58:57.824Z,100048.02
2019-02-25T02:02:07.493Z,100051.88
2019-02-25T02:04:57.042Z,100052.69
2019-02-25T02:07:27.377Z,100059.55
2019-02-25T02:10:01.079Z,100060.84
2019-02-25T02:12:32.225Z,100054.82
2019-02-25T02:15:24.367Z,100062.09
2019-02-25T02:17:54.934Z,100061.27
2019-02-25T02:20:44.247Z,100061.69
2019-02-25T02:23:34.500Z,100063.30
2019-02-25T02:26:44.286Z,100058.99
2019-02-25T02:29:14.774Z,100064.59
2019-02-25T02:32:04.492Z,100058.16
2019-02-25T02:34:35.522Z,100053.84
2019-02-25T02:37:05.808Z,100062.83
2019-02-25T02:39:36.527Z,100066.20
2019-02-25T02:42:27.446Z,100068.30
2019-02-25T02:45:19.090Z,100066.63
2019-02-25T02:48:19.112Z,100071.36
2019-02-25T02:50:49.914Z,100081.59
2019-02-25T02:53:20.964Z,100083.42
2019-02-25T02:55:52.305Z,100083.39
2019-02-25T02:58:41.808Z,100073.09
2019-02-25T03:01:12.677Z,100070.00
2019-02-25T03:04:02.534Z,100069.98
2019-02-25T03:06:54.220Z,100076.80
2019-02-25T03:09:25.153Z,100067.78
2019-02-25T03:11:55.745Z,100066.85
2019-02-25T03:14:45.769Z,100066.85
2019-02-25T03:17:35.146Z,100066.85
2019-02-25T03:20:24.632Z,100064.70
2019-02-25T03:23:13.793Z,100072.00
2019-02-25T03:26:03.375Z,100064.73
2019-02-25T03:28:34.574Z,100083.23
2019-02-25T03:31:24.254Z,100086.95
2019-02-25T03:33:55.731Z,100087.38
2019-02-25T03:36:47.137Z,100087.41
2019-02-25T03:39:17.768Z,100087.83
2019-02-25T03:41:48.695Z,100086.09
2019-02-25T03:44:19.523Z,100092.52
2019-02-25T03:46:49.790Z,100088.63
2019-02-25T03:49:21.121Z,100089.94
2019-02-25T03:51:51.230Z,100092.97
2019-02-25T03:54:41.120Z,100089.94
2019-02-25T03:57:30.594Z,100100.17
2019-02-25T04:00:03.034Z,100097.17
2019-02-25T04:02:34.887Z,100100.96
2019-02-25T04:05:24.800Z,100103.88
2019-02-25T04:08:14.075Z,100109.02
2019-02-25T04:10:44.702Z,100106.90
2019-02-25T04:13:34.578Z,100111.17
2019-02-25T04:16:23.793Z,100108.15
2019-02-25T04:19:13.252Z,100097.37
2019-02-25T04:22:02.735Z,100101.30
2019-02-25T04:24:52.744Z,100097.03
2019-02-25T04:27:42.267Z,100103.08
2019-02-25T04:30:14.449Z,100097.90
2019-02-25T04:33:03.911Z,100098.31
2019-02-25T04:35:34.539Z,100090.98
2019-02-25T04:38:24.116Z,100089.73
2019-02-25T04:41:13.442Z,100086.20
2019-02-25T04:44:02.869Z,100091.73
2019-02-25T04:46:33.060Z,100084.01
2019-02-25T04:49:05.652Z,100088.70
2019-02-25T04:51:55.573Z,100096.95
2019-02-25T04:54:45.045Z,100091.84
2019-02-25T04:57:15.983Z,100097.90
2019-02-25T04:59:49.351Z,100091.02
2019-02-25T05:02:21.065Z,100095.70
2019-02-25T05:05:12.965Z,100100.02
2019-02-25T05:07:43.067Z,100102.17
2019-02-25T05:10:13.917Z,100100.84
2019-02-25T05:13:04.847Z,100095.25
2019-02-25T05:15:36.463Z,100103.91
2019-02-25T05:18:06.603Z,100113.90
2019-02-25T05:20:55.801Z,100105.23
2019-02-25T05:23:25.950Z,100106.94
2019-02-25T05:26:15.463Z,100103.00
2019-02-25T05:29:04.910Z,100115.11
2019-02-25T05:31:54.261Z,100107.31
2019-02-25T05:34:24.643Z,100107.36
2019-02-25T05:37:14.570Z,100100.55
2019-02-25T05:39:44.720Z,100102.21
2019-02-25T05:42:34.309Z,100093.12
2019-02-25T05:45:23.477Z,100084.95
2019-02-25T05:47:53.674Z,100093.55
2019-02-25T05:50:23.891Z,100087.95
2019-02-25T05:53:13.353Z,100089.27
2019-02-25T05:55:43.574Z,100086.20
2019-02-25T05:58:14.066Z,100093.55
2019-02-25T06:00:49.769Z,100089.27
2019-02-25T06:03:19.892Z,100092.22
2019-02-25T06:06:09.461Z,100093.02
2019-02-25T06:08:39.682Z,100099.44
2019-02-25T06:11:28.900Z,100105.83
2019-02-25T06:14:18.109Z,99948.22
2019-02-25T06:17:09.310Z,100096.50
2019-02-25T06:19:39.465Z,100103.49
2019-02-25T06:22:09.939Z,100106.03
2019-02-25T06:24:41.779Z,100110.34
2019-02-25T06:27:12.187Z,100098.80
2019-02-25T06:29:42.338Z,100099.63
2019-02-25T06:32:31.960Z,100103.08
2019-02-25T06:35:14.164Z,100107.77
2019-02-25T06:37:46.078Z,100113.03
2019-02-25T06:40:16.774Z,100103.45
2019-02-25T06:42:46.879Z,100109.97
2019-02-25T06:45:17.975Z,100115.53
2019-02-25T06:48:07.226Z,100114.20
2019-02-25T06:50:37.395Z,100124.98
2019-02-25T06:53:26.865Z,100118.06
2019-02-25T06:55:57.006Z,100120.30
2019-02-25T06:58:46.604Z,100119.50
2019-02-25T07:01:17.108Z,100118.29
2019-02-25T07:04:19.419Z,100118.73
2019-02-25T07:07:08.488Z,100117.45
2019-02-25T07:10:00.762Z,100121.23
2019-02-25T07:13:09.249Z,100108.94
2019-02-25T07:15:58.345Z,100111.92
2019-02-25T07:18:39.348Z,100117.95
2019-02-25T07:21:28.530Z,100119.47
2019-02-25T07:24:20.808Z,100117.80
2019-02-25T07:27:17.014Z,100118.80
2019-02-25T07:30:25.827Z,100109.02
2019-02-25T07:33:14.874Z,100110.77
2019-02-25T07:36:18.252Z,100107.45
2019-02-25T07:39:07.323Z,100116.08
2019-02-25T07:41:56.378Z,100111.87
2019-02-25T07:45:04.570Z,100111.08
2019-02-25T07:47:49.301Z,100111.96
2019-02-25T07:50:57.616Z,100100.39
2019-02-25T07:54:06.831Z,100103.03
2019-02-25T07:56:56.311Z,100108.29
2019-02-25T07:59:45.341Z,100104.09
2019-02-25T08:02:34.417Z,100103.34
2019-02-25T08:05:41.829Z,100104.27
2019-02-25T08:08:50.534Z,100111.23
2019-02-25T08:11:39.697Z,100110.38
2019-02-25T08:14:30.253Z,100108.69
2019-02-25T08:17:19.397Z,100111.73
2019-02-25T08:20:27.400Z,100114.31
2019-02-25T08:23:35.495Z,100122.08
2019-02-25T08:26:24.509Z,100117.80
2019-02-25T08:29:28.914Z,100116.10
2019-02-25T08:32:38.697Z,100116.50
2019-02-25T08:35:51.027Z,100114.52
2019-02-25T08:38:35.168Z,100112.45
2019-02-25T08:41:29.235Z,100115.25
2019-02-25T08:44:18.296Z,100116.71
2019-02-25T08:47:10.405Z,100115.45
2019-02-25T08:49:44.926Z,100121.14
2019-02-25T08:52:35.884Z,100111.39
2019-02-25T08:55:25.306Z,100105.67
2019-02-25T08:57:55.507Z,99989.97
2019-02-25T09:00:44.856Z,100109.62
2019-02-25T09:03:15.064Z,100105.75
2019-02-25T09:05:45.249Z,100113.71
2019-02-25T09:08:34.571Z,100118.64
2019-02-25T09:11:13.720Z,100117.99
2019-02-25T09:13:36.995Z,100123.62
2019-02-25T09:16:07.872Z,100124.98
2019-02-25T09:18:38.059Z,100115.96
2019-02-25T09:21:08.368Z,100129.65
2019-02-25T09:23:57.534Z,100132.23
2019-02-25T09:26:27.702Z,100125.97
2019-02-25T09:28:58.006Z,100131.22
2019-02-25T09:31:47.639Z,100136.75
2019-02-25T09:34:17.903Z,100139.67
2019-02-25T09:36:47.998Z,100139.06
2019-02-25T09:39:19.572Z,100132.55
2019-02-25T09:41:49.808Z,100134.17
2019-02-25T09:44:39.377Z,100129.56
2019-02-25T09:47:09.755Z,100047.50
2019-02-25T09:49:39.932Z,100124.66
2019-02-25T09:52:10.292Z,100125.41
2019-02-25T09:54:40.727Z,100128.63
2019-02-25T09:57:10.898Z,100127.59
2019-02-25T10:00:00.134Z,100131.98
2019-02-25T10:02:30.350Z,100135.78
2019-02-25T10:05:19.518Z,100129.28
2019-02-25T10:07:49.725Z,100124.20
2019-02-25T10:10:19.895Z,100134.47
2019-02-25T10:12:57.662Z,100099.92
2019-02-25T10:15:27.843Z,100135.18
2019-02-25T10:17:58.074Z,100130.41
2019-02-25T10:20:28.609Z,100129.44
2019-02-25T10:22:58.905Z,100129.15
2019-02-25T10:25:29.165Z,100130.22
2019-02-25T10:27:59.323Z,100137.97
2019-02-25T10:30:29.424Z,100135.06
2019-02-25T10:33:00.859Z,100135.67
2019-02-25T10:35:32.543Z,100139.55
2019-02-25T10:38:03.272Z,100138.81
2019-02-25T10:40:33.399Z,100142.76
2019-02-25T10:43:03.548Z,100135.16
2019-02-25T10:45:35.258Z,100133.67
2019-02-25T10:48:06.229Z,100135.23
2019-02-25T10:50:38.440Z,100134.70
2019-02-25T10:53:20.384Z,100130.78
2019-02-25T10:56:12.275Z,100134.95
2019-02-25T10:58:42.412Z,100126.67
2019-02-25T11:01:16.920Z,100124.78
2019-02-25T11:03:45.637Z,100124.89
2019-02-25T11:06:37.567Z,100125.76
2019-02-25T11:12:35.438Z,100107.80
2019-02-25T11:15:07.386Z,100109.36
2019-02-25T11:17:57.357Z,100105.07
2019-02-25T11:20:29.157Z,100106.72
2019-02-25T11:22:59.681Z,100103.46
2019-02-25T11:25:30.282Z,100102.89
2019-02-25T11:28:00.509Z,100102.45
2019-02-25T11:30:30.786Z,100101.66
2019-02-25T11:33:03.823Z,100095.06
2019-02-25T11:35:34.320Z,100095.47
2019-02-25T11:38:16.281Z,100090.25
2019-02-25T11:40:46.419Z,100090.44
2019-02-25T11:43:18.810Z,100086.91
2019-02-25T11:45:48.870Z,100071.14
2019-02-25T11:48:22.652Z,100078.61
2019-02-25T11:50:53.286Z,100072.50
2019-02-25T11:53:23.453Z,100073.17
2019-02-25T11:55:53.740Z,100066.48
2019-02-25T11:58:23.855Z,100066.98
2019-02-25T12:00:55.401Z,100062.47
2019-02-25T12:03:25.566Z,100062.76
2019-02-25T12:06:14.715Z,100058.42
2019-02-25T12:08:44.874Z,100064.95
2019-02-25T12:11:15.077Z,100057.97
2019-02-25T12:14:04.348Z,100051.81
2019-02-25T12:16:34.504Z,100055.30
2019-02-25T12:19:04.885Z,100051.81
2019-02-25T12:21:35.281Z,100046.06
2019-02-25T12:24:25.436Z,100046.66
2019-02-25T12:26:55.625Z,100040.74
2019-02-25T12:29:44.949Z,100038.67
2019-02-25T12:32:15.073Z,100040.24
2019-02-25T12:34:45.584Z,100038.52
2019-02-25T12:37:16.142Z,100037.80
2019-02-25T12:39:57.464Z,100036.05
2019-02-25T12:42:39.766Z,100030.92
2019-02-25T12:45:10.193Z,100026.84
2019-02-25T12:47:40.611Z,100019.86
2019-02-25T12:52:35.003Z,100011.95
2019-02-25T12:55:24.193Z,100005.25
2019-02-25T12:57:55.240Z,100007.55
2019-02-25T13:00:25.546Z,100005.95
2019-02-25T13:02:56.124Z,100000.33
2019-02-25T13:05:29.308Z,99994.88
2019-02-25T13:07:59.571Z,99991.13
2019-02-25T13:10:29.721Z,99994.42
2019-02-25T13:13:00.057Z,99988.38
2019-02-25T13:15:49.555Z,99987.05
2019-02-25T13:18:21.664Z,99986.55
2019-02-25T13:20:53.938Z,99986.28
2019-02-25T13:23:43.203Z,99985.32
2019-02-25T13:26:13.433Z,99977.36
2019-02-25T13:28:43.569Z,99978.77
2019-02-25T13:31:32.815Z,99974.30
2019-02-25T13:34:02.990Z,99967.14
2019-02-25T13:36:33.165Z,99964.20
2019-02-25T13:44:22.380Z,99955.60
2019-02-25T13:47:04.242Z,99953.10
2019-02-25T13:49:34.377Z,99945.58
2019-02-25T13:52:47.277Z,99944.47
2019-02-25T14:01:25.778Z,99942.88
2019-02-25T14:03:55.944Z,99950.80
2019-02-25T14:06:45.130Z,99950.70
2019-02-25T14:09:53.162Z,99949.02
2019-02-25T14:12:42.447Z,99942.84
2019-02-25T14:15:31.859Z,99941.84
2019-02-25T14:18:21.049Z,99937.71
2019-02-25T14:20:51.165Z,99926.46
2019-02-25T14:23:40.622Z,99938.80
2019-02-25T14:26:29.808Z,99929.20
2019-02-25T14:29:19.063Z,99927.65
2019-02-25T14:31:51.080Z,99920.25
2019-02-25T14:34:40.329Z,99914.73
2019-02-25T14:37:29.783Z,99802.06
2019-02-25T14:40:14.506Z,99911.70
2019-02-25T14:42:54.698Z,99907.34
2019-02-25T14:45:46.413Z,99898.98
2019-02-25T14:48:35.339Z,99899.88
2019-02-25T14:51:24.570Z,99886.00
2019-02-25T14:54:13.740Z,99892.17
2019-02-25T14:57:02.961Z,99888.67
2019-02-25T14:59:52.986Z,99886.72
2019-02-25T15:02:43.748Z,99882.25
2019-02-25T15:05:34.333Z,99880.49
2019-02-25T15:08:28.499Z,99874.84
2019-02-25T15:11:01.908Z,99881.85
2019-02-25T15:13:50.198Z,99875.08
2019-02-25T15:16:21.542Z,99873.02
2019-02-25T15:19:13.358Z,99875.58
2019-02-25T15:22:06.484Z,99879.97
2019-02-25T15:24:55.060Z,99876.56
2019-02-25T15:27:27.688Z,99876.97
2019-02-25T15:29:59.026Z,99865.02
2019-02-25T15:32:31.468Z,99867.39
2019-02-25T15:38:10.302Z,99867.97
2019-02-25T15:41:04.453Z,99860.00
2019-02-25T15:43:37.532Z,99872.03
2019-02-25T15:46:28.854Z,99859.17
2019-02-25T15:49:19.682Z,99864.02
2019-02-25T15:52:14.645Z,99857.23
2019-02-25T15:55:02.394Z,99861.52
2019-02-25T15:57:37.723Z,99852.38
2019-02-25T16:00:30.052Z,99850.70
2019-02-25T16:03:22.085Z,99855.27
2019-02-25T16:06:12.605Z,99855.94
2019-02-25T16:09:04.781Z,99847.38
2019-02-25T16:11:54.353Z,99848.59
2019-02-25T16:14:47.182Z,99851.04
2019-02-25T16:17:17.801Z,99847.42
2019-02-25T16:19:53.472Z,99854.85
2019-02-25T16:22:45.556Z,99849.89
2019-02-25T16:25:34.788Z,99850.42
2019-02-25T16:30:55.981Z,99865.35
2019-02-25T16:33:28.181Z,99862.13
2019-02-25T16:36:19.334Z,99857.78
2019-02-25T16:39:10.125Z,99854.84
2019-02-25T16:41:59.790Z,99852.25
2019-02-25T16:44:49.577Z,99849.45
2019-02-25T16:47:41.022Z,99821.41
2019-02-25T16:50:14.234Z,99861.27
2019-02-25T16:53:07.881Z,99856.02
2019-02-25T16:56:11.858Z,99854.91
2019-02-25T16:58:29.872Z,99860.77
2019-02-25T17:01:21.098Z,99834.48
2019-02-25T17:04:02.681Z,99870.92
2019-02-25T17:06:36.969Z,99871.75
2019-02-25T17:09:32.033Z,99868.79
2019-02-25T17:12:23.313Z,99874.83
2019-02-25T17:15:14.329Z,99880.30
2019-02-25T17:18:03.978Z,99878.48
2019-02-25T17:20:53.481Z,99887.86
2019-02-25T17:23:42.698Z,99885.03
2019-02-25T17:26:32.523Z,99885.67
2019-02-25T17:29:05.028Z,99883.12
2019-02-25T17:31:55.287Z,99882.38
2019-02-25T17:34:45.482Z,99888.90
2019-02-25T17:37:36.090Z,99899.90
2019-02-25T17:40:25.820Z,99896.97
2019-02-25T17:43:09.094Z,99901.63
2019-02-25T17:45:50.796Z,99899.20
2019-02-25T17:48:32.403Z,99897.48
2019-02-25T17:51:13.898Z,99891.45
2019-02-25T17:53:55.616Z,99890.14
2019-02-25T17:56:37.391Z,99785.80
2019-02-25T17:59:09.643Z,99892.08
2019-02-25T18:01:41.667Z,99893.34
2019-02-25T18:04:12.224Z,99899.20
2019-02-25T18:07:01.527Z,99894.78
2019-02-25T18:09:50.806Z,99784.14
2019-02-25T18:12:41.483Z,99903.63
2019-02-25T18:15:32.807Z,99902.63
2019-02-25T18:18:24.385Z,99910.11
2019-02-25T18:21:13.236Z,99913.91
2019-02-25T18:24:02.837Z,99909.84
2019-02-25T18:26:52.311Z,99906.02
2019-02-25T18:29:44.057Z,99909.72
2019-02-25T18:32:34.831Z,99913.36
2019-02-25T18:35:23.956Z,99913.00
2019-02-25T18:38:13.380Z,99918.03
2019-02-25T18:41:04.645Z,99801.30
2019-02-25T18:43:46.766Z,99911.69
2019-02-25T18:46:19.002Z,99900.72
2019-02-25T18:49:09.606Z,99903.27
2019-02-25T18:51:40.230Z,99801.91
2019-02-25T18:54:29.545Z,99904.95
2019-02-25T18:57:01.220Z,99903.77
2019-02-25T18:59:32.235Z,99904.95
2019-02-25T19:02:03.013Z,99907.69
2019-02-25T19:04:52.349Z,99903.92
2019-02-25T19:07:23.555Z,99910.93
2019-02-25T19:10:34.385Z,99909.34
2019-02-25T19:13:05.303Z,99911.21
2019-02-25T19:15:55.301Z,99915.58
2019-02-25T19:18:47.245Z,99912.47
2019-02-25T19:21:18.261Z,99914.28
2019-02-25T19:23:48.741Z,99912.80
2019-02-25T19:26:38.787Z,99920.31
2019-02-25T19:29:10.045Z,99919.46
2019-02-25T19:32:01.178Z,99915.36
2019-02-25T19:34:32.330Z,99918.72
2019-02-25T19:37:22.802Z,99920.90
2019-02-25T19:40:14.943Z,99922.88
2019-02-25T19:42:47.336Z,99918.23
2019-02-25T19:45:17.835Z,99919.59
2019-02-25T19:48:19.990Z,99916.36
2019-02-25T19:50:50.493Z,99913.70
2019-02-25T19:53:15.155Z,99916.10
2019-02-25T19:56:10.414Z,99912.21
2019-02-25T19:59:08.090Z,99921.05
2019-02-25T20:01:39.595Z,99922.34
2019-02-25T20:04:20.877Z,99923.77
2019-02-25T20:07:13.273Z,99916.55
2019-02-25T20:09:44.142Z,99920.14
2019-02-25T20:12:22.572Z,99928.38
2019-02-25T20:15:14.075Z,99917.17
2019-02-25T20:17:48.348Z,99918.14
2019-02-25T20:20:20.269Z,99921.27
2019-02-25T20:22:54.674Z,99924.85
2019-02-25T20:25:46.634Z,99928.66
2019-02-25T20:28:18.663Z,99925.13
2019-02-25T20:30:51.502Z,99928.75
2019-02-25T20:33:23.773Z,99930.98
2019-02-25T20:36:19.150Z,99929.39
2019-02-25T20:39:09.273Z,99924.29
2019-02-25T20:41:52.690Z,99926.61
2019-02-25T20:44:28.334Z,99929.35
2019-02-25T20:47:23.253Z,99929.83
2019-02-25T20:50:15.452Z,99938.11
2019-02-25T20:52:58.230Z,99926.76
2019-02-25T20:55:48.207Z,99933.79
2019-02-25T20:58:23.124Z,99933.06
2019-02-25T21:01:16.105Z,99933.24
2019-02-25T21:04:22.365Z,99938.35
2019-02-25T21:06:57.475Z,99936.75
2019-02-25T21:09:46.905Z,99932.94
2019-02-25T21:12:20.185Z,99935.23
2019-02-25T21:15:14.180Z,99934.77
2019-02-25T21:17:46.417Z,99940.39
2019-02-25T21:20:35.698Z,99941.81
2019-02-25T21:23:08.511Z,99940.55
2019-02-25T21:26:11.389Z,99943.58
2019-02-25T21:28:42.891Z,99937.72
2019-02-25T21:31:32.760Z,99939.97
2019-02-25T21:34:03.337Z,99938.34
2019-02-25T21:36:35.810Z,99939.32
2019-02-25T21:39:10.043Z,99935.90
2019-02-25T21:41:41.796Z,99936.77
2019-02-25T21:44:26.407Z,99929.05
2019-02-25T21:47:20.379Z,99925.59
2019-02-25T21:50:33.537Z,99924.69
2019-02-25T21:53:25.454Z,99929.09
2019-02-25T21:56:02.437Z,99927.86
2019-02-25T21:58:50.927Z,99928.03
2019-02-25T22:01:21.693Z,99782.13
2019-02-25T22:03:52.532Z,99920.21
2019-02-25T22:06:26.723Z,99921.14
2019-02-25T22:08:58.559Z,99923.77
2019-02-25T22:11:31.640Z,99916.92
2019-02-25T22:14:03.386Z,99921.77
2019-02-25T22:16:33.710Z,99914.84
2019-02-25T22:19:23.329Z,99919.23
2019-02-25T22:22:12.587Z,99920.56
2019-02-25T22:27:39.089Z,99921.05
2019-02-25T22:30:12.215Z,99918.43
2019-02-25T22:33:02.988Z,99915.74
2019-02-25T22:35:52.901Z,99917.05
2019-02-25T22:38:25.342Z,99916.70
2019-02-25T22:40:58.090Z,99915.09
2019-02-25T22:43:48.251Z,99915.55
2019-02-25T22:46:19.370Z,99919.91
2019-02-25T22:48:50.269Z,99908.31
2019-02-25T22:51:22.108Z,99912.58
2019-02-25T22:54:12.477Z,99910.42
2019-02-25T22:56:47.201Z,99912.16
2019-02-25T22:59:37.424Z,99910.10
2019-02-25T23:02:47.465Z,99910.53
2019-02-25T23:05:40.971Z,99854.28
2019-02-25T23:08:12.981Z,99918.86
2019-02-25T23:11:02.100Z,99923.20
2019-02-25T23:13:54.852Z,99923.61
2019-02-25T23:16:25.486Z,99917.59
2019-02-25T23:18:55.768Z,99914.59
2019-02-25T23:21:29.341Z,99912.91
2019-02-25T23:24:01.324Z,99920.73
2019-02-25T23:26:31.431Z,99908.64
2019-02-25T23:29:27.949Z,99912.91
2019-02-25T23:32:21.043Z,99918.53
2019-02-25T23:34:55.364Z,99918.56
2019-02-25T23:37:26.897Z,99922.94
2019-02-25T23:40:00.078Z,99912.19
2019-02-25T23:42:32.760Z,99909.59
2019-02-25T23:45:02.304Z,99916.05
2019-02-25T23:47:55.226Z,99918.22
2019-02-25T23:50:27.362Z,99917.81
2019-02-25T23:53:16.441Z,99915.69
2019-02-25T23:55:47.818Z,99915.23
2019-02-25T23:58:42.312Z,99920.94
